EDDF/FRA METAR and TAF weather

Enter ICAO airport designator
Station Type Date Time Source
EDDF METAR 2018/04/23 11:20 UTC NOAA

EDDF 231120Z 20012KT 160V240 9999 FEW030 SCT036 BKN300 21/14 Q1015 NOSIG


Station Type Date Time Source
EDDF Decoded METAR 2018/04/23 11:20 UTC NOAA

Frankfurt / M-Flughafen, Germany (EDDF) 50-03N 008-36E 113M
Apr 23, 2018 - 07:20 AM EDT / 2018.04.23 1120 UTC
Wind: from the SSW (200 degrees) at 14 MPH (12 KT) (direction variable):0
Visibility: greater than 7 mile(s):0
Sky conditions: mostly cloudy
Temperature: 69 F (21 C)
Dew Point: 57 F (14 C)
Relative Humidity: 64%
Pressure (altimeter): 29.97 in. Hg (1015 hPa)
ob: EDDF 231120Z 20012KT 160V240 9999 FEW030 SCT036 BKN300 21/14 Q1015 NOSIG
cycle: 11

Station Type Date Time Source
EDDF TAF 2018/04/23 06:27 UTC NOAA

TAF TAF EDDF 230500Z 2306/2412 20005KT CAVOK
TEMPO 2306/2314 SHRA BKN030 SCT040CB
BECMG 2306/2309 22010KT PROB30
TEMPO 2306/2314 24015G30KT 4000 TSRA BKN030CB
BECMG 2316/2318 28008KT
BECMG 2321/2323 22003KT


Example: see airport list